Portada
METAR-TAF:

METAR-TAF

Aeroports :

Saint-Brieuc, França

latitud: 48-32N, longitud: 002-51W, altitud: 138 m

Observació

L'informe es va fer fa 36 minuts, a les 16:00 UTC
Vent 16 kt del Sud/Sud-Oest amb ràfegues de 29 kt, variant entre Sud i Oest/Sud-Oest
Temperatura 11°C
Humitat 94%
Pressió 1013 hPa
Visibilitat 10 km o més
Cel ennuvolat a una alçada de 1100 ft
Cel cobert a una alçada de 1600 ft

METAR: LFRT 101600Z AUTO 21016G29KT 180V240 9999 BKN011 OVC016 11/10 Q1013

Hora: 17:36 (16:36 UTC)


TAF: manca

Observacions i pronòstics meteorològics de més de 4000 aeroports (METAR i TAF).

Les estacions disponibles són els punts grocs i vermells al mapa.

Posi el ratolí al punt desitjat per veure el nom de l'estació.

Feu clic per veure les observacions i els pronòstics meteorològics.

Per canviar el mapa: feu clic els botons verds amb una creu de color negre per apropar; al botó verd amb un guió per allunyar la imatge; o en les fletxes verdes per a mapes adjacents.


METAR-TAF: